M I D A S
Marine Information and Data Acquisition System
Tripno 838 of the Zeeleeuw from 2005-01-14 07:08:01 to 2005-01-14 14:49:40
Back to CruiseResearch ActivitiesStationsMapUnderway DataData graphs

EquipmentUnitsComments
TimeDGPSUTC
LatitudeDGPSDM.mWGS84
LongitudeDGPSDM.mWGS84
SpeedMeteo Stationm/sRelative wind speed
DirectionMeteo StationdegRelative wind direction
TemperatureMeteo Stationdeg CelciusAir temperature
PressureMeteo StationPaAtmospheric pressure
HumidityMeteo Station%Relative humidity
Missing or incorrect values are displayed as -999
Metereological data collected by the RV Zeeleeuw from 2005-01-14 07:09:25 to 2005-01-14 14:56:18
Time Latitude Longitude Speed Direction Temperature Pressure Humidity
2005-01-14 07:10 51°13.609 2°56.047 0.9 133 2.2 103030 100
2005-01-14 07:11 51°13.639 2°55.955 1.2 131 2.1 103030 100
2005-01-14 07:12 51°13.681 2°55.856 0.8 153 2.1 103030 100
2005-01-14 07:13 51°13.731 2°55.755 1.1 162 2.1 103030 100
2005-01-14 07:14 51°13.793 2°55.683 0.6 223 2.1 103030 100
2005-01-14 07:15 51°13.813 2°55.666 0.2 350 2.2 103030 100
2005-01-14 07:16 51°13.891 2°55.638 1.2 210 2.2 103030 100
2005-01-14 07:17 51°13.971 2°55.669 1.7 229 2.2 103030 100
2005-01-14 07:18 51°13.982 2°55.62 1.5 227 2.2 103030 100
2005-01-14 07:19 51°14.064 2°55.477 2.6 6 2.3 103020 100
2005-01-14 07:20 51°14.192 2°55.351 2.3 5 2.4 103030 100
2005-01-14 07:21 51°14.311 2°55.158 2.9 348 2.5 103030 100
2005-01-14 07:22 51°14.441 2°54.927 3.9 339 2.6 103020 100
2005-01-14 07:23 51°14.591 2°54.707 3.9 354 2.9 103020 100
2005-01-14 07:24 51°14.763 2°54.492 3.5 355 3.1 103020 100
2005-01-14 07:25 51°14.954 2°54.281 4.3 2 3.3 103010 100
2005-01-14 07:26 51°15.137 2°54.073 4.4 1 3.6 103010 100
2005-01-14 07:27 51°15.324 2°53.868 5.6 5 3.9 102970 100
2005-01-14 07:28 51°15.527 2°53.688 5.7 14 4.1 102970 100
2005-01-14 07:29 51°15.732 2°53.498 5.3 7 4.3 102970 100
2005-01-14 07:30 51°15.932 2°53.315 4.8 11 4.4 102970 100
2005-01-14 07:31 51°16.131 2°53.144 5 19 4.5 102970 100
2005-01-14 07:32 51°16.34 2°52.991 5 15 4.6 102980 100
2005-01-14 07:33 51°16.557 2°52.933 5.6 26 4.9 102970 100
2005-01-14 07:34 51°16.784 2°52.986 5.8 26 5 102970 100
2005-01-14 07:35 51°16.988 2°53.071 5.4 30 5 102960 100
2005-01-14 07:36 51°17.198 2°53.136 6 35 5 102970 100
2005-01-14 07:37 51°17.368 2°53.341 6.8 36 5 102960 100
2005-01-14 07:38 51°17.522 2°53.587 7.6 33 5 102960 100
2005-01-14 07:39 51°17.647 2°53.857 7.2 35 5.1 102950 100
2005-01-14 07:40 51°17.772 2°54.128 7.4 38 5.1 102960 100
2005-01-14 07:41 51°17.906 2°54.411 7.6   5.2 102970 100
2005-01-14 07:42 51°18.033 2°54.686 7.4   5.2 102960 100
2005-01-14 07:43 51°18.157 2°54.957 7.6 34 5.2 102970 100
2005-01-14 07:44 51°18.295 2°55.229 7.2   5.2 102980 100
2005-01-14 07:45 51°18.441 2°55.484 7.3   5.3 102970 100
2005-01-14 07:46 51°18.589 2°55.738 7.1   5.3 102970 100
2005-01-14 07:47 51°18.732 2°55.986 7.1 34 5.3 102970 100
2005-01-14 07:48 51°18.876 2°56.259 6.8   5.3 102970 100
2005-01-14 07:49 51°19.015 2°56.524 7.3   5.3 102970 99
2005-01-14 07:50 51°19.143 2°56.794 7.2 42 5.4 102970 99
2005-01-14 07:51 51°19.266 2°57.073 7 35 5.4 102970 98
2005-01-14 07:52 51°19.375 2°57.36 6.7 36 5.5 102980 97
2005-01-14 07:53 51°19.49 2°57.658 7.2   5.5 102970 96
2005-01-14 07:54 51°19.59 2°57.949 7 40 5.6 102980 94
2005-01-14 07:55 51°19.691 2°58.249 7.1   5.6 102980 93
2005-01-14 07:56 51°19.767 2°58.56 7.5 36 5.7 102970 92
2005-01-14 07:57 51°19.833 2°58.874 8 35 5.7 102970 91
2005-01-14 07:58 51°19.904 2°59.186 7.8 33 5.7 102980 90
2005-01-14 07:59 51°19.971 2°59.493 8.4 35 5.7 102980 90
2005-01-14 08:00 51°20.041 2°59.811 8.3 28 5.6 102980 90
2005-01-14 08:01 51°20.11 3°0.122 8 28 5.5 102980 90
2005-01-14 08:02 51°20.176 3°0.432 8.1 37 5.3 102980 90
2005-01-14 08:03 51°20.223 3°0.745 8 33 5.1 102970 90
2005-01-14 08:04 51°20.278 3°1.052 8 32 5 103020 91
2005-01-14 08:05 51°20.33 3°1.374 8.3 39 5 102970 91
2005-01-14 08:06 51°20.378 3°1.684 7.8 36 4.9 102980 91
2005-01-14 08:07 51°20.438 3°1.98 8.1 36 4.8 102980 92
2005-01-14 08:08 51°20.492 3°2.287 8   4.8 102980 92
2005-01-14 08:09 51°20.529 3°2.53 5.1 60 4.7 103030 93
2005-01-14 08:10 51°20.576 3°2.593 2.5 110 4.8 103020 93
2005-01-14 08:11 51°20.605 3°2.574 2.8 169 4.8 103040 94
2005-01-14 08:12 51°20.613 3°2.531 2.1 204 4.8 103050 94
2005-01-14 08:13 51°20.617 3°2.487 4.9 220 4.9 103040 94
2005-01-14 08:14 51°20.619 3°2.441 4.3 240 4.8 103040 94
2005-01-14 08:15 51°20.622 3°2.391 3.7   4.6 103040 94
2005-01-14 08:16 51°20.622 3°2.341 2.7 254 4.5 103040 94
2005-01-14 08:17 51°20.621 3°2.291 4.8 267 4.4 103040 95
2005-01-14 08:18 51°20.62 3°2.243 4.1 263 4.4 103040 95
2005-01-14 08:19 51°20.617 3°2.192 4.3 272 4.3 103040 95
2005-01-14 08:20 51°20.619 3°2.121 3 256 4.3 103040 96
2005-01-14 08:21 51°20.642 3°2.041 2.2 207 4.3 103050 96
2005-01-14 08:22 51°20.69 3°2.022 3.5 105 4.4 103050 97
2005-01-14 08:23 51°20.711 3°2.086 4.4 79 4.3 103050 96
2005-01-14 08:24 51°20.743 3°2.17 3.6   4.3 103040 97
2005-01-14 08:25 51°20.771 3°2.252 5.2 80 4.3 103060 97
2005-01-14 08:26 51°20.784 3°2.33 3.5 74 4.2 103050 97
2005-01-14 08:27 51°20.798 3°2.406 4.1 64 4.3 103020 98
2005-01-14 08:28 51°20.814 3°2.481 4.1 79 4.3 103030 98
2005-01-14 08:29 51°20.83 3°2.551 4.5 82 4.3 103020 98
2005-01-14 08:30 51°20.845 3°2.623 3.9 68 4.2 103040 98
2005-01-14 08:31 51°20.862 3°2.695 4.1 69 4 103030 98
2005-01-14 08:32 51°20.878 3°2.766 4.1 77 3.9 103070 98
2005-01-14 08:33 51°20.897 3°2.836 4 74 3.8 103040 98
2005-01-14 08:34 51°20.912 3°2.907 3.8 76 3.8 103040 99
2005-01-14 08:35 51°20.928 3°2.977 3.8 72 3.7 103030 99
2005-01-14 08:36 51°20.944 3°3.049 3.5 73 3.7 103040 99
2005-01-14 08:37 51°20.956 3°3.124 5 83 3.7 103040 99
2005-01-14 08:38 51°20.975 3°3.198 4.5 91 3.7 103040 100
2005-01-14 08:39 51°20.997 3°3.27 4.4 93 3.6 103030 100
2005-01-14 08:40 51°21.019 3°3.34 4.9 97 3.7 103040 100
2005-01-14 08:41 51°21.041 3°3.409 3.5 95 3.7 103040 100
2005-01-14 08:42 51°21.061 3°3.476 4.6 96 3.7 103040 100
2005-01-14 08:43 51°21.082 3°3.546 5 86 3.6 103040 100
2005-01-14 08:44 51°21.101 3°3.613 5.5 87 3.6 103050 100
2005-01-14 08:45 51°21.122 3°3.684 5 89 3.6 103050 100
2005-01-14 08:46 51°21.142 3°3.75 4.9 82 3.6 103050 100
2005-01-14 08:47 51°21.162 3°3.819 5.5 89 3.5 103050 100
2005-01-14 08:48 51°21.181 3°3.883 5.3 85 3.5 103050 100
2005-01-14 08:49 51°21.201 3°3.944 5.3 81 3.4 103050 100
2005-01-14 08:50 51°21.224 3°4.009 4.3 79 3.3 103050 100
2005-01-14 08:51 51°21.245 3°4.069 5.4 83 3.2 103050 100
2005-01-14 08:52 51°21.259 3°4.129 3.6 75 3.2 103040 100
2005-01-14 08:53 51°21.27 3°4.193 4.7 76 3.1 103040 100
2005-01-14 08:54 51°21.286 3°4.261 3.9 76 3 103040 100
2005-01-14 08:55 51°21.303 3°4.334 4.4 81 2.9 103040 100
2005-01-14 08:56 51°21.322 3°4.409 4.2 81 2.9 103050 100
2005-01-14 08:57 51°21.338 3°4.481 3.9 80 2.9 103040 100
2005-01-14 08:58 51°21.351 3°4.558 5.6 84 2.9 103040 100
2005-01-14 08:59 51°21.366 3°4.637 4 73 2.9 103060 100
2005-01-14 09:00 51°21.374 3°4.716 5.2 76 2.9 103060 100
2005-01-14 09:01 51°21.383 3°4.793 4.2 76 2.9 103060 100
2005-01-14 09:02 51°21.392 3°4.865 4 74 3 103060 100
2005-01-14 09:03 51°21.404 3°4.928 4.8 84 3 103060 100
2005-01-14 09:04 51°21.407 3°4.955 4.2 74 3.1 103070 100
2005-01-14 09:05 51°21.374 3°5.012 6.8   3.1 103030 100
2005-01-14 09:06 51°21.29 3°5.108 7.9 27 3.1 103020 100
2005-01-14 09:07 51°21.203 3°5.244 8.7 25 3.1 103020 100
2005-01-14 09:08 51°21.112 3°5.259 6 353 3.1 103050 100
2005-01-14 09:09 51°21.044 3°5.2 5.6 338 3.2 103050 100
2005-01-14 09:10 51°20.979 3°5.132 6.1 350 3.3 103050 100
2005-01-14 09:11 51°20.922 3°5.06 5.8 325 3.3 103050 100
2005-01-14 09:12 51°20.88 3°4.968 5.6 312 3.2 103050 100
2005-01-14 09:13 51°20.847 3°4.881 5 309 3.1 103050 100
2005-01-14 09:14 51°20.815 3°4.807 5.9 228 3.1 103050 100
2005-01-14 09:15 51°20.79 3°4.724 4.5 300 3.1 103050 100
2005-01-14 09:16 51°20.767 3°4.633 5 228 3.1 103070 100
2005-01-14 09:17 51°20.742 3°4.549 5.6 306 3.1 103050 100
2005-01-14 09:18 51°20.716 3°4.463 5.3 43 3.1 103050 100
2005-01-14 09:19 51°20.69 3°4.379 6.6 310 3 103040 100
2005-01-14 09:20 51°20.665 3°4.293 4.7 311 2.9 103050 100
2005-01-14 09:21 51°20.641 3°4.208 5.5 309 2.9 103040 100
2005-01-14 09:22 51°20.618 3°4.125 5.5 313 2.9 103050 100
2005-01-14 09:23 51°20.593 3°4.039 5.4 312 2.8 103050 100
2005-01-14 09:24 51°20.568 3°3.955 5.7 309 2.8 103050 100
2005-01-14 09:25 51°20.544 3°3.869 4.9 307 2.8 103050 100
2005-01-14 09:26 51°20.521 3°3.78 5.5 303 2.8 103050 100
2005-01-14 09:27 51°20.502 3°3.693 4.5 295 2.8 103050 100
2005-01-14 09:28 51°20.485 3°3.6 4.4 293 2.7 103060 100
2005-01-14 09:29 51°20.468 3°3.512 4.7 292 2.7 103050 100
2005-01-14 09:30 51°20.454 3°3.426 4.5 285 2.8 103060 100
2005-01-14 09:31 51°20.442 3°3.336 6 284 2.9 103070 100
2005-01-14 09:32 51°20.428 3°3.242 4.1 281 3 103080 100
2005-01-14 09:33 51°20.414 3°3.148 4.6 281 3 103070 100
2005-01-14 09:34 51°20.404 3°3.051 4.4 284 3.2 103080 100
2005-01-14 09:35 51°20.398 3°2.955 4.7 282 3.2 103080 100
2005-01-14 09:36 51°20.391 3°2.856 4.8 284 3.2 103090 100
2005-01-14 09:37 51°20.385 3°2.757 4.6   3.2 103090 100
2005-01-14 09:38 51°20.377 3°2.656 4.4 290 3.2 103060 100
2005-01-14 09:39 51°20.37 3°2.53 4.7 293 3.1 103060 100
2005-01-14 09:40 51°20.362 3°2.385 4.4 291 3.1 103060 100
2005-01-14 09:41 51°20.351 3°2.236 4.9 295 3.2 103050 100
2005-01-14 09:42 51°20.334 3°2.094 4.8 301 3.2 103080 100
2005-01-14 09:43 51°20.314 3°1.992 5.4 292 3.2 103080 100
2005-01-14 09:44 51°20.296 3°1.907 4.6 293 3.2 103080 100
2005-01-14 09:45 51°20.281 3°1.833 4.4 276 3.2 103080 100
2005-01-14 09:46 51°20.267 3°1.766 5.5 280 3.3 103080 100
2005-01-14 09:47 51°20.25 3°1.689 4.7 300 3.3 103090 100
2005-01-14 09:48 51°20.2 3°1.468 8.3 326 3.3 103020 100
2005-01-14 09:49 51°20.138 3°1.135 7.6 328 3.3 103010 100
2005-01-14 09:50 51°20.046 3°0.812 9.3 328 3.4 103000 100
2005-01-14 09:51 51°20.01 3°0.465 10.3 321 3.5 103010 100
2005-01-14 09:52 51°19.955 3°0.115 9.9 328 3.7 103000 100
2005-01-14 09:53 51°19.939 2°59.75 9.9 327 3.8 103010 100
2005-01-14 09:54 51°19.883 2°59.389 9.7   4 103000 100
2005-01-14 09:55 51°19.855 2°59.017 9.7 333 4.1 103000 100
2005-01-14 09:56 51°19.8 2°58.66 9.7 332 4.2 103000 100
2005-01-14 09:57 51°19.759 2°58.272 11.6 334 4.4 103000 100
2005-01-14 09:58 51°19.688 2°57.903 11.1 330 4.6 103000 100
2005-01-14 09:59 51°19.605 2°57.553 12.2 338 4.7 102990 100
2005-01-14 10:00 51°19.509 2°57.182 12.5 335 4.8 102980 100
2005-01-14 10:01 51°19.418 2°56.822 12 334 4.8 102990 100
2005-01-14 10:02 51°19.328 2°56.459 13 336 4.8 102980 100
2005-01-14 10:03 51°19.239 2°56.101 12.6 335 4.9 102990 100
2005-01-14 10:04 51°19.15 2°55.731 13.5 331 4.9 102980 100
2005-01-14 10:05 51°19.062 2°55.366 11.9 328 4.9 102990 100
2005-01-14 10:06 51°18.977 2°55.012 11.9 335 4.8 102990 100
2005-01-14 10:07 51°18.885 2°54.633 12.8 337 4.9 103000 100
2005-01-14 10:08 51°18.795 2°54.268 12.2 340 4.9 103000 100
2005-01-14 10:09 51°18.707 2°53.901 12.4 335 4.9 103000 100
2005-01-14 10:10 51°18.618 2°53.535 12.4 335 4.9 103000 100
2005-01-14 10:11 51°18.52 2°53.181 11.5 335 4.9 102990 100
2005-01-14 10:12 51°18.397 2°52.833 12.1 343 4.8 103000 100
2005-01-14 10:13 51°18.228 2°52.563 12.4 353 4.9 102980 100
2005-01-14 10:14 51°17.991 2°52.446 12.6 359 4.8 103000 100
2005-01-14 10:15 51°17.754 2°52.339 12.7 358 4.9 102990 100
2005-01-14 10:16 51°17.516 2°52.287 12.7 10 4.9 103000 100
2005-01-14 10:17 51°17.274 2°52.303 12.8 15 4.9 103000 100
2005-01-14 10:18 51°17.041 2°52.316 13.5 11 5 103000 100
2005-01-14 10:19 51°16.793 2°52.32 12.1 5 4.9 103000 100
2005-01-14 10:20 51°16.554 2°52.337 13.9 7 4.9 103060 100
2005-01-14 10:21 51°16.307 2°52.346 13.2 7 4.9 103010 99
2005-01-14 10:22 51°16.063 2°52.348 13.8 10 4.8 103000 98
2005-01-14 10:23 51°15.821 2°52.345 14.7 8 4.8 103000 98
2005-01-14 10:24 51°15.58 2°52.343 12.9 10 4.9 103000 98
2005-01-14 10:25 51°15.339 2°52.341 13.8 10 4.9 102990 98
2005-01-14 10:26 51°15.1 2°52.342 12.7 12 4.9 102990 97
2005-01-14 10:27 51°14.903 2°52.366 9.4 11 4.8 103050 97
2005-01-14 10:28 51°14.811 2°52.349 6.5 343 4.8 103050 97
2005-01-14 10:29 51°14.778 2°52.307 5.4 227 4.7 103050 97
2005-01-14 10:30 51°14.759 2°52.262 5.5 300 4.7 103050 96
2005-01-14 10:31 51°14.744 2°52.221 5.2 307 4.7 103040 96
2005-01-14 10:32 51°14.729 2°52.186 6 311 4.7 103050 97
2005-01-14 10:33 51°14.716 2°52.151 6.1 311 4.7 103050 96
2005-01-14 10:34 51°14.705 2°52.12 5.5 310 4.7 103050 96
2005-01-14 10:35 51°14.693 2°52.068 6 293 4.7 103040 96
2005-01-14 10:36 51°14.675 2°51.968 7 308 4.8 103040 96
2005-01-14 10:37 51°14.652 2°51.848 6.8 308 4.7 103040 96
2005-01-14 10:38 51°14.625 2°51.727 6.6 308 4.6 103040 96
2005-01-14 10:39 51°14.603 2°51.629 6.4 308 4.6 103040 96
2005-01-14 10:40 51°14.583 2°51.544 5.7 305 4.6 103070 96
2005-01-14 10:41 51°14.562 2°51.459 6.5 303 4.7 103050 96
2005-01-14 10:42 51°14.542 2°51.372 6.1 298 4.7 103050 96
2005-01-14 10:43 51°14.522 2°51.284 6.6 296 4.7 103050 96
2005-01-14 10:44 51°14.502 2°51.199 7.1 303 4.8 103040 96
2005-01-14 10:45 51°14.48 2°51.111 7.3 302 4.8 103050 96
2005-01-14 10:46 51°14.456 2°51.026 6.8 309 4.8 103040 96
2005-01-14 10:47 51°14.43 2°50.94 7.1 308 4.8 103040 96
2005-01-14 10:48 51°14.404 2°50.86 6.6 312 4.8 103040 96
2005-01-14 10:49 51°14.378 2°50.776 6.4 300 4.8 103040 96
2005-01-14 10:50 51°14.351 2°50.694 6.7 309 4.8 103040 96
2005-01-14 10:51 51°14.325 2°50.61 6.1 311 4.7 103040 95
2005-01-14 10:52 51°14.298 2°50.526 6.5 309 4.7 103040 95
2005-01-14 10:53 51°14.272 2°50.441 6.2 312 4.7 103040 95
2005-01-14 10:54 51°14.246 2°50.36 6.1 310 4.7 103040 95
2005-01-14 10:55 51°14.22 2°50.271 7.2 309 4.8 103040 95
2005-01-14 10:56 51°14.194 2°50.186 6.8 315 4.7 103040 95
2005-01-14 10:57 51°14.166 2°50.102 6.3 312 4.7 103040 95
2005-01-14 10:58 51°14.141 2°50.018 6.3 313 4.6 103030 95
2005-01-14 10:59 51°14.114 2°49.931 5.7 313 4.6 103040 95
2005-01-14 11:00 51°14.087 2°49.847 6.7 228 4.7 103050 96
2005-01-14 11:01 51°14.06 2°49.764 6.6 314 4.7 103030 95
2005-01-14 11:02 51°14.034 2°49.68 6.8 311 4.7 103030 96
2005-01-14 11:03 51°14.005 2°49.602 7.2 315 4.7 103030 96
2005-01-14 11:04 51°13.98 2°49.523 6.9 315 4.7 103030 95
2005-01-14 11:05 51°13.955 2°49.441 7 307 4.7 103030 96
2005-01-14 11:06 51°13.929 2°49.36 6.9 312 4.8 103040 96
2005-01-14 11:07 51°13.904 2°49.28 6.6 309 4.8 103030 95
2005-01-14 11:08 51°13.878 2°49.198 7.2 312 4.8 103030 95
2005-01-14 11:09 51°13.849 2°49.105 6.9 313 4.8 103050 95
2005-01-14 11:10 51°13.82 2°49.005 6.8 314 4.9 103050 96
2005-01-14 11:11 51°13.796 2°48.902 7.6 302 4.9 103050 95
2005-01-14 11:12 51°13.781 2°48.801 6.8 294 4.9 103050 95
2005-01-14 11:13 51°13.773 2°48.723 7 282 4.9 103040 95
2005-01-14 11:14 51°13.782 2°48.636 5 232 4.9 103040 95
2005-01-14 11:15 51°13.846 2°48.643 5.1 134 4.9 103050 95
2005-01-14 11:16 51°13.892 2°48.713 5.5 120 4.9 103030 94
2005-01-14 11:17 51°13.927 2°48.794 5 107 4.9 103040 95
2005-01-14 11:18 51°13.956 2°48.882 5.9 113 4.9 103030 94
2005-01-14 11:19 51°13.988 2°48.966 5.7 110 4.9 103030 94
2005-01-14 11:20 51°14.018 2°49.041 5.6 118 5 103040 94
2005-01-14 11:21 51°14.043 2°49.109 5.4 121 4.9 103020 94
2005-01-14 11:22 51°14.068 2°49.177 5.1 117 5 103020 94
2005-01-14 11:23 51°14.093 2°49.242 4.6 126 5 103020 94
2005-01-14 11:24 51°14.118 2°49.31 5.3 120 5 103020 94
2005-01-14 11:25 51°14.145 2°49.379 4.5 122 5 103020 93
2005-01-14 11:26 51°14.171 2°49.446 5.1 118 5 103020 93
2005-01-14 11:27 51°14.197 2°49.512 5.1 116 5.1 103020 93
2005-01-14 11:28 51°14.224 2°49.58 5 112 5 103040 93
2005-01-14 11:29 51°14.247 2°49.649 5.2 107 5 103020 93
2005-01-14 11:30 51°14.269 2°49.72 5.1 108 4.9 103010 93
2005-01-14 11:31 51°14.29 2°49.789 5.4 106 4.9 103020 93
2005-01-14 11:32 51°14.312 2°49.861 5 111 4.9 103010 93
2005-01-14 11:33 51°14.335 2°49.929 5.2 114 4.8 103010 93
2005-01-14 11:34 51°14.362 2°49.998 5 109 4.8 103010 93
2005-01-14 11:35 51°14.39 2°50.06 4.8 115 4.9 103010 94
2005-01-14 11:36 51°14.418 2°50.128 4.8 115 4.9 103030 94
2005-01-14 11:37 51°14.445 2°50.194 4.7 114 4.9 103030 94
2005-01-14 11:38 51°14.472 2°50.261 4.4 123 4.9 103000 94
2005-01-14 11:39 51°14.5 2°50.328 4.9 122 4.9 103000 94
2005-01-14 11:40 51°14.528 2°50.394 5.2 123 4.9 103000 94
2005-01-14 11:41 51°14.555 2°50.463 5.7 116 4.9 103000 93
2005-01-14 11:42 51°14.582 2°50.53 5.9 117 4.9 102990 93
2005-01-14 11:43 51°14.609 2°50.599 4.7 116 4.9 102990 94
2005-01-14 11:44 51°14.636 2°50.664 4.9 114 4.9 103000 93
2005-01-14 11:45 51°14.664 2°50.734 5.1 110 4.8 102990 93
2005-01-14 11:46 51°14.688 2°50.807 5.5 108 4.8 103020 93
2005-01-14 11:47 51°14.709 2°50.881 5.3 103 4.8 102980 94
2005-01-14 11:48 51°14.72 2°50.975 6 82 4.8 102980 94
2005-01-14 11:49 51°14.706 2°51.076 6.1 71 4.7 102980 93
2005-01-14 11:50 51°14.673 2°51.161 6.6 48 4.7 102990 93
2005-01-14 11:51 51°14.637 2°51.195 5.9 45 4.6 103000 93
2005-01-14 11:52 51°14.608 2°51.207 5.5 41 4.6 103010 93
2005-01-14 11:53 51°14.581 2°51.213 6 19 4.5 103000 93
2005-01-14 11:54 51°14.532 2°51.185 6.1 325 4.6 103000 93
2005-01-14 11:55 51°14.503 2°51.131 5.2 305 4.6 103000 93
2005-01-14 11:56 51°14.488 2°51.086 4.8 289 4.7 103020 94
2005-01-14 11:57 51°14.475 2°51.038 4.7 307 4.7 103020 94
2005-01-14 11:58 51°14.468 2°50.865 7.4 43 4.8 102970 94
2005-01-14 11:59 51°14.474 2°50.586 6.6 320 4.8 102970 93
2005-01-14 12:00 51°14.475 2°50.316 6.1 310 4.8 102970 93
2005-01-14 12:01 51°14.484 2°50.148 5.4 281 4.9 102990 94
2005-01-14 12:02 51°14.499 2°50.013 6.7 300 4.9 103010 93
2005-01-14 12:03 51°14.462 2°49.796 9.4 333 4.9 103000 93
2005-01-14 12:04 51°14.357 2°49.486 9.6 342 4.9 102990 93
2005-01-14 12:05 51°14.236 2°49.145 8.2 343 5 102940 93
2005-01-14 12:06 51°14.106 2°48.825 8.8 347 5.1 102940 93
2005-01-14 12:07 51°13.957 2°48.533 11.1 341 5.1 102930 93
2005-01-14 12:08 51°13.802 2°48.243 10.3 343 5.2 102930 93
2005-01-14 12:09 51°13.648 2°47.951 11.7 343 5.3 102930 92
2005-01-14 12:10 51°13.493 2°47.656 12.3 344 5.4 102920 92
2005-01-14 12:11 51°13.346 2°47.36 12.3 344 5.4 102910 91
2005-01-14 12:12 51°13.209 2°47.064 11.9 340 5.5 102920 91
2005-01-14 12:13 51°13.067 2°46.757 10.5 341 5.5 102920 91
2005-01-14 12:14 51°12.927 2°46.457 11.6 344 5.5 102920 91
2005-01-14 12:15 51°12.786 2°46.154 12.4 340 5.6 102920 91
2005-01-14 12:16 51°12.645 2°45.856 11.4 340 5.7 102930 90
2005-01-14 12:17 51°12.516 2°45.558 10.4 330 5.8 102920 90
2005-01-14 12:18 51°12.481 2°45.197 9.8 324 5.8 102920 88
2005-01-14 12:19 51°12.447 2°44.842 9.6 322 5.8 102920 87
2005-01-14 12:20 51°12.404 2°44.483 9.6 327 5.8 102920 87
2005-01-14 12:21 51°12.346 2°44.122 10.6 334 5.8 102920 87
2005-01-14 12:22 51°12.278 2°43.762 11.1 327 5.9 102930 87
2005-01-14 12:23 51°12.205 2°43.417 10.2 334 5.8 102910 86
2005-01-14 12:24 51°12.118 2°43.069 10.5 333 5.8 102910 86
2005-01-14 12:25 51°12.038 2°42.734 9.3 328 5.8 102920 87
2005-01-14 12:26 51°11.937 2°42.388 10.3 336 5.7 102910 87
2005-01-14 12:27 51°11.82 2°42.069 9.9 337 5.8 102910 88
2005-01-14 12:28 51°11.702 2°41.753 10.7 338 5.8 102910 88
2005-01-14 12:29 51°11.57 2°41.454 10.8 337 5.8 102910 88
2005-01-14 12:30 51°11.434 2°41.16 11.4 339 5.9 102910 88
2005-01-14 12:31 51°11.298 2°40.865 11.1 339 5.9 102910 87
2005-01-14 12:32 51°11.14 2°40.598 10.4 345 5.8 102920 88
2005-01-14 12:33 51°10.98 2°40.336 10.5 347 5.9 102910 88
2005-01-14 12:34 51°10.836 2°40.098 7.7 335 5.9 102910 88
2005-01-14 12:35 51°10.754 2°39.998 6.3 322 5.9 102980 89
2005-01-14 12:36 51°10.728 2°39.933 5 279 5.9 102980 88
2005-01-14 12:37 51°10.727 2°39.898 4.9 265 5.9 102980 88
2005-01-14 12:38 51°10.728 2°39.87 4.4 272 6 102980 89
2005-01-14 12:39 51°10.727 2°39.848 5.5 267 6.1 102980 88
2005-01-14 12:40 51°10.726 2°39.831 5.1 278 6.1 102970 88
2005-01-14 12:41 51°10.724 2°39.819 4.6 282 6.1 102970 88
2005-01-14 12:42 51°10.702 2°39.779 6.2 42 6.2 102960 88
2005-01-14 12:43 51°10.652 2°39.697 6.5 314 6.3 102960 88
2005-01-14 12:44 51°10.605 2°39.573 5.3 312 6.3 102960 87
2005-01-14 12:45 51°10.562 2°39.465 6.3 310 6.4 102960 87
2005-01-14 12:46 51°10.529 2°39.37 5.2 309 6.4 102960 87
2005-01-14 12:47 51°10.498 2°39.281 5.4 313 6.5 102960 88
2005-01-14 12:48 51°10.468 2°39.196 5.6 310 6.6 102960 87
2005-01-14 12:49 51°10.437 2°39.116 5.7 310 6.7 102950 87
2005-01-14 12:50 51°10.407 2°39.042 5 309 6.7 102950 87
2005-01-14 12:51 51°10.376 2°38.964 5.2 312 6.7 102950 87
2005-01-14 12:52 51°10.346 2°38.89 4.4 307 6.7 102950 86
2005-01-14 12:53 51°10.318 2°38.817 4.7 308 6.8 102950 86
2005-01-14 12:54 51°10.292 2°38.746 4.5 293 6.8 102950 86
2005-01-14 12:55 51°10.269 2°38.671 5.4 303 6.8 102950 86
2005-01-14 12:56 51°10.25 2°38.603 5.2 305 6.9 102950 86
2005-01-14 12:57 51°10.23 2°38.532 5.4 304 6.9 102950 86
2005-01-14 12:58 51°10.21 2°38.464 5.9 297 7 102950 86
2005-01-14 12:59 51°10.189 2°38.402 5.3 300 7 102950 86
2005-01-14 13:00 51°10.161 2°38.342 6.3 313 7 102940 85
2005-01-14 13:01 51°10.134 2°38.287 6.4 310 7 102940 85
2005-01-14 13:02 51°10.107 2°38.233 5.5 309 7 102940 85
2005-01-14 13:03 51°10.082 2°38.174 6.3 305 7.1 102940 85
2005-01-14 13:04 51°10.059 2°38.117 5.3 308 7.1 102930 85
2005-01-14 13:05 51°10.036 2°38.061 5.6 298 7.1 102930 85
2005-01-14 13:06 51°10.013 2°38.004 5.2 298 7.2 102930 85
2005-01-14 13:07 51°9.992 2°37.949 5.1 308 7.2 102940 85
2005-01-14 13:08 51°9.971 2°37.893 5.7 300 7.2 102930 85
2005-01-14 13:09 51°9.949 2°37.838 5.9 304 7.2 102940 85
2005-01-14 13:10 51°9.926 2°37.776 6.4 303 7.2 102940 85
2005-01-14 13:11 51°9.899 2°37.707 5.3 303 7.2 102930 85
2005-01-14 13:12 51°9.868 2°37.638 6.4 313 7.2 102930 84
2005-01-14 13:13 51°9.837 2°37.569 5.4 307 7.3 102930 84
2005-01-14 13:14 51°9.81 2°37.5 5.7 295 7.3 102940 84
2005-01-14 13:15 51°9.791 2°37.428 5.4 293 7.4 102930 84
2005-01-14 13:16 51°9.786 2°37.349 5 281 7.4 102930 84
2005-01-14 13:17 51°9.798 2°37.3 4.6 263 7.4 102930 84
2005-01-14 13:18 51°9.816 2°37.277 3.3 255 7.4 102930 83
2005-01-14 13:19 51°9.839 2°37.27 4 232 7.4 102930 83
2005-01-14 13:20 51°9.883 2°37.265 1.3 165 7.4 102940 83
2005-01-14 13:21 51°9.951 2°37.338 4 118 7.4 102930 82
2005-01-14 13:22 51°10.009 2°37.44 4.4 99 7.3 102930 82
2005-01-14 13:23 51°10.016 2°37.621 9.8 18 7.3 102920 82
2005-01-14 13:24 51°9.846 2°37.819 11.4 9 7.3 102910 82
2005-01-14 13:25 51°9.649 2°38.007 11.3 8 7.2 102900 82
2005-01-14 13:26 51°9.452 2°38.19 10.5 3 7.3 102910 82
2005-01-14 13:27 51°9.354 2°38.347 6.4 33 7.3 102920 82
2005-01-14 13:28 51°9.361 2°38.481 5.6 76 7.3 102930 83
2005-01-14 13:29 51°9.393 2°38.61 4.5 78 7.2 102930 83
2005-01-14 13:30 51°9.421 2°38.745 4.7 76 7.2 102920 84
2005-01-14 13:31 51°9.445 2°38.86 4.9 80 7.2 102930 84
2005-01-14 13:32 51°9.466 2°38.956 4.9 86 7.2 102930 84
2005-01-14 13:33 51°9.487 2°39.042 6 90 7.2 102930 85
2005-01-14 13:34 51°9.508 2°39.12 5.6 99 7.2 102920 85
2005-01-14 13:35 51°9.531 2°39.197 5.6 92 7.2 102920 85
2005-01-14 13:36 51°9.552 2°39.271 5.5 98 7.2 102920 84
2005-01-14 13:37 51°9.572 2°39.344 4.6 88 7.2 102920 84
2005-01-14 13:38 51°9.592 2°39.419 4.6 94 7.2 102920 83
2005-01-14 13:39 51°9.612 2°39.501 4.4 73 7.3 102920 83
2005-01-14 13:40 51°9.631 2°39.583 6.2 83 7.3 102910 84
2005-01-14 13:41 51°9.651 2°39.672 5.7 83 7.2 102900 83
2005-01-14 13:42 51°9.671 2°39.759 5.3 88 7.2 102910 83
2005-01-14 13:43 51°9.69 2°39.847 6.4 85 7.2 102900 83
2005-01-14 13:44 51°9.713 2°39.934 5.4 87 7.2 102890 83
2005-01-14 13:45 51°9.738 2°40.019 5.3 89 7.2 102900 83
2005-01-14 13:46 51°9.762 2°40.108 4.4 77 7.3 102900 84
2005-01-14 13:47 51°9.788 2°40.207 5.5 83 7.3 102890 84
2005-01-14 13:48 51°9.811 2°40.296 5.6 80 7.2 102890 84
2005-01-14 13:49 51°9.831 2°40.384 6.1 89 7.1 102890 84
2005-01-14 13:50 51°9.851 2°40.476 5.4 76 7.1 102890 83
2005-01-14 13:51 51°9.87 2°40.566 6.2 83 7.2 102890 84
2005-01-14 13:52 51°9.888 2°40.666 6.1 68 7.1 102890 84
2005-01-14 13:53 51°9.909 2°40.791 4.7 77 7.1 102890 84
2005-01-14 13:54 51°9.928 2°40.923 6.2 63 7.2 102890 84
2005-01-14 13:55 51°9.947 2°41.055 6.5 62 7.2 102890 85
2005-01-14 13:56 51°9.968 2°41.197 6.5 70 7.1 102910 85
2005-01-14 13:57 51°9.985 2°41.314 6.1 57 7.1 102910 85
2005-01-14 13:58 51°9.998 2°41.42 6.4 50 7.1 102900 85
2005-01-14 13:59 51°10.022 2°41.668 8.2 42 7.1 102880 85
2005-01-14 14:00 51°10.093 2°41.965 8.4 51 7.1 102890 85
2005-01-14 14:01 51°10.167 2°42.258 7.6 57 7.1 102890 86
2005-01-14 14:02 51°10.22 2°42.441 8.3 86 7.1 102910 86
2005-01-14 14:03 51°10.26 2°42.578 6.9 57 6.9 102920 84
2005-01-14 14:04 51°10.25 2°42.698 6.1 17 6.9 102890 83
2005-01-14 14:05 51°10.234 2°42.76 6.1 344 7.1 102900 83
2005-01-14 14:06 51°10.229 2°42.806 5.6 336 7.2 102900 83
2005-01-14 14:07 51°10.231 2°42.843 5.6 340 7.2 102900 83
2005-01-14 14:08 51°10.236 2°42.879 5.7 320 7.4 102900 83
2005-01-14 14:09 51°10.244 2°42.913 5.6 310 7.4 102900 84
2005-01-14 14:10 51°10.232 2°42.95 7.1 3 7.5 102900 84
2005-01-14 14:11 51°10.224 2°43.1 8.6 62 7.4 102880 84
2005-01-14 14:12 51°10.318 2°43.402 9.5 52 7.2 102830 84
2005-01-14 14:13 51°10.411 2°43.774 9.3 44 7 102830 83
2005-01-14 14:14 51°10.502 2°44.142 8.7 49 7 102840 83
2005-01-14 14:15 51°10.593 2°44.513 10 48 7 102850 84
2005-01-14 14:16 51°10.68 2°44.877 9.1 44 6.9 102840 84
2005-01-14 14:17 51°10.769 2°45.237 10.5 54 6.9 102850 83
2005-01-14 14:18 51°10.865 2°45.615 9.2 48 6.9 102880 83
2005-01-14 14:19 51°10.957 2°45.975 9.6 43 6.9 102840 83
2005-01-14 14:20 51°11.068 2°46.336 10.4 53 6.9 102840 83
2005-01-14 14:21 51°11.174 2°46.687 8.2 52 6.9 102840 83
2005-01-14 14:22 51°11.306 2°47.03 6.5 54 7 102860 84
2005-01-14 14:23 51°11.438 2°47.367 8.5 53 7 102860 84
2005-01-14 14:24 51°11.565 2°47.701 7.7 38 7 102860 84
2005-01-14 14:25 51°11.697 2°48.045 8.3 51 7 102860 84
2005-01-14 14:26 51°11.827 2°48.386 8.3 44 7 102880 84
2005-01-14 14:27 51°11.96 2°48.716 6.6 41 7 102860 84
2005-01-14 14:28 51°12.104 2°49.044 8.4 52 7.1 102890 84
2005-01-14 14:29 51°12.249 2°49.377 7.8 47 7 102860 84
2005-01-14 14:30 51°12.389 2°49.701 7.9 47 7 102870 83
2005-01-14 14:31 51°12.534 2°50.036 6.9 58 7 102870 83
2005-01-14 14:32 51°12.677 2°50.363 7.1 46 7 102870 83
2005-01-14 14:33 51°12.82 2°50.692 7.6 42 7 102870 83
2005-01-14 14:34 51°12.962 2°51.017 8.1 51 7 102880 83
2005-01-14 14:35 51°13.106 2°51.354 8.8 56 6.9 102870 82
2005-01-14 14:36 51°13.249 2°51.685 6.3 65 6.9 102870 80
2005-01-14 14:37 51°13.392 2°52.01 6.7 61 6.9 102870 79
2005-01-14 14:38 51°13.539 2°52.348 6.5 55 6.9 102870 79
2005-01-14 14:39 51°13.682 2°52.679 6.8 49 7 102880 80
2005-01-14 14:40 51°13.825 2°53.011 7.5 44 7.1 102870 82
2005-01-14 14:41 51°13.969 2°53.342 8.5 43 7.1 102870 82
2005-01-14 14:42 51°14.109 2°53.661 6.8 51 7.1 102870 81
2005-01-14 14:43 51°14.258 2°54.005 7 44 7.1 102870 80
2005-01-14 14:44 51°14.402 2°54.327 9.5 48 7.2 102880 80
2005-01-14 14:45 51°14.441 2°54.693 8.7 36 7.2 102870 80
2005-01-14 14:46 51°14.38 2°55.028 8.2 20 7.2 102870 80
2005-01-14 14:47 51°14.251 2°55.273 8.9 24 7.2 102880 79
2005-01-14 14:48 51°14.127 2°55.424 9.7 17 7.3 102890 78
2005-01-14 14:49 51°13.991 2°55.523 7.2 13 7.3 102900 78
2005-01-14 14:50 51°13.866 2°55.612 8.1 7 7.3 102890 78
2005-01-14 14:51 51°13.761 2°55.716 5.6 25 7.3 102890 78
2005-01-14 14:52 51°13.69 2°55.845 4.1 18 7.3 102900 79
2005-01-14 14:53 51°13.642 2°55.956 4.2 27 7.2 102900 79
2005-01-14 14:54 51°13.61 2°56.047 2.9 43 7.2 102910 80
2005-01-14 14:55 51°13.596 2°56.098 2.9 32 7.2 102910 81